Time;durP1;ratioP1;P1;durP2;ratioP2;P2;SDS_P1;SDS_P2;PMS_P1;PMS_P2;Temp;Humidity;BMP_temperature;BMP_pressure;BME280_temperature;BME280_humidity;BME280_pressure;Samples;Min_cycle;Max_cycle;Signal;HPM_P1;HPM_P2
2023/07/26 00:00:55;;;;;;;13.60;8.50;;;;;;;17.06;95.33;99129.98;678819;1263;140167;-78
2023/07/26 00:16:06;;;;;;;24.40;15.30;;;;;;;17.23;96.26;99143.89;681923;1262;139842;-79
2023/07/26 00:31:09;;;;;;;14.40;8.10;;;;;;;17.29;96.84;99143.20;679425;1263;140415;-78
2023/07/26 00:46:14;;;;;;;17.30;7.70;;;;;;;17.03;96.84;99159.00;680382;1262;138910;-78
2023/07/26 01:01:18;;;;;;;14.80;8.90;;;;;;;17.14;96.56;99179.41;681478;1258;139166;-79
2023/07/26 01:16:22;;;;;;;10.30;6.50;;;;;;;17.21;96.89;99184.34;680400;1260;140007;-79
2023/07/26 01:31:25;;;;;;;7.00;4.60;;;;;;;17.38;95.53;99190.84;680306;1260;139807;-79
2023/07/26 01:46:29;;;;;;;8.00;4.00;;;;;;;17.37;94.17;99199.70;681665;1262;140070;-79
2023/07/26 02:01:33;;;;;;;13.40;5.50;;;;;;;17.21;94.51;99209.58;680174;1257;140458;-79
2023/07/26 02:16:38;;;;;;;6.50;4.30;;;;;;;17.00;96.43;99210.42;681538;1260;139654;-79
2023/07/26 02:31:41;;;;;;;7.30;4.40;;;;;;;16.89;96.32;99215.73;681858;1261;139562;-79
2023/07/26 02:46:45;;;;;;;7.70;4.20;;;;;;;17.08;94.89;99229.02;681363;1259;140234;-79
2023/07/26 03:01:49;;;;;;;6.90;4.00;;;;;;;16.94;95.35;99238.85;681395;1262;139510;-79
2023/07/26 03:16:52;;;;;;;11.10;7.30;;;;;;;16.58;97.80;99245.74;679942;1263;138979;-79
2023/07/26 03:31:58;;;;;;;6.70;3.70;;;;;;;16.94;95.93;99255.61;680499;1257;140097;-78
2023/07/26 03:47:02;;;;;;;5.00;3.70;;;;;;;17.35;95.30;99264.45;679601;1264;140017;-78
2023/07/26 04:02:06;;;;;;;11.30;3.70;;;;;;;17.70;94.00;99276.40;681694;1266;139372;-78
2023/07/26 04:17:11;;;;;;;11.50;3.80;;;;;;;17.64;95.50;99280.75;681616;1262;139141;-78
2023/07/26 04:32:14;;;;;;;7.30;3.20;;;;;;;17.53;96.26;99300.86;680248;1256;139500;-78
2023/07/26 04:47:22;;;;;;;5.20;3.60;;;;;;;18.03;93.93;99326.45;680687;1260;138844;-78
2023/07/26 05:02:25;;;;;;;8.30;3.60;;;;;;;18.71;92.82;99341.69;679770;1258;139189;-78
2023/07/26 05:17:29;;;;;;;7.70;2.90;;;;;;;19.00;90.82;99352.86;680531;1260;138806;-79
2023/07/26 05:32:33;;;;;;;6.20;2.60;;;;;;;19.44;88.10;99351.61;681625;1257;139413;-80
2023/07/26 05:47:38;;;;;;;5.50;3.10;;;;;;;19.93;86.23;99356.39;681718;1261;138863;-78
2023/07/26 06:02:41;;;;;;;7.20;2.40;;;;;;;21.31;82.98;99354.56;681727;1259;139839;-80
2023/07/26 06:17:45;;;;;;;7.80;3.20;;;;;;;22.87;77.36;99356.17;680361;1260;139444;-78
2023/07/26 06:32:50;;;;;;;6.00;2.10;;;;;;;22.88;76.07;99364.74;680447;1260;139184;-76
2023/07/26 06:47:54;;;;;;;6.00;2.30;;;;;;;22.66;75.29;99374.75;681578;1261;138508;-79
2023/07/26 07:02:59;;;;;;;6.30;2.00;;;;;;;22.59;74.10;99376.13;680508;1258;139723;-77
2023/07/26 07:18:03;;;;;;;7.00;1.80;;;;;;;23.38;70.63;99380.33;681364;1257;139731;-78
2023/07/26 07:33:18;;;;;;;5.20;1.70;;;;;;;23.51;68.80;99384.75;681113;1256;139459;-78
2023/07/26 07:48:22;;;;;;;9.10;2.20;;;;;;;26.84;61.88;99384.44;681459;1257;139922;-78
2023/07/26 08:03:25;;;;;;;17.90;3.70;;;;;;;27.76;57.55;99388.67;680957;1257;191261;-78
2023/07/26 08:18:29;;;;;;;3.30;1.80;;;;;;;29.13;52.20;99385.48;681949;1261;140236;-77
2023/07/26 08:33:32;;;;;;;7.30;3.40;;;;;;;27.08;53.06;99403.55;682709;1261;138558;-76
2023/07/26 08:48:37;;;;;;;7.10;1.90;;;;;;;26.91;52.46;99406.07;682257;1262;139687;-76
2023/07/26 09:03:41;;;;;;;5.80;1.30;;;;;;;27.65;52.12;99409.59;681743;1261;139021;-76
2023/07/26 09:18:59;;;;;;;5.30;1.90;;;;;;;27.22;51.31;99416.65;680768;1257;138650;-76
2023/07/26 09:34:06;;;;;;;3.10;1.20;;;;;;;28.16;50.92;99409.54;681643;1260;138680;-76
2023/07/26 09:49:10;;;;;;;3.70;1.40;;;;;;;28.80;49.04;99404.36;681219;1263;139029;-76
2023/07/26 10:04:40;;;;;;;2.10;1.20;;;;;;;29.50;47.14;99392.87;682172;1263;138576;-76
2023/07/26 10:19:46;;;;;;;;;;;;;;;28.47;46.78;99377.16;681284;1260;139276;-75
2023/07/26 10:34:55;;;;;;;4.10;1.40;;;;;;;28.43;44.02;99375.88;681646;1263;125756;-75
2023/07/26 10:50:06;;;;;;;3.10;1.00;;;;;;;28.96;44.76;99367.70;680926;1262;139911;-76
2023/07/26 11:05:14;;;;;;;4.90;1.10;;;;;;;29.88;43.17;99366.70;679721;1262;139298;-76
2023/07/26 11:20:18;;;;;;;1.80;1.10;;;;;;;29.87;41.74;99371.70;680816;1262;138790;-78
2023/07/26 11:35:23;;;;;;;5.40;1.30;;;;;;;30.57;41.50;99365.35;681220;1262;140849;-77
2023/07/26 11:50:30;;;;;;;3.20;1.40;;;;;;;29.79;41.54;99375.16;679514;1262;139804;-77
2023/07/26 12:05:34;;;;;;;4.80;1.20;;;;;;;28.56;43.07;99388.41;682323;1261;139913;-76
2023/07/26 12:20:56;;;;;;;5.70;2.30;;;;;;;26.77;46.06;99400.81;679133;1262;139340;-79
2023/07/26 12:36:06;;;;;;;5.80;1.90;;;;;;;26.16;49.27;99421.63;681945;1258;138189;-79
2023/07/26 12:51:10;;;;;;;4.90;1.50;;;;;;;25.64;49.90;99443.52;680931;1272;138477;-78
2023/07/26 13:06:13;;;;;;;3.00;1.50;;;;;;;25.06;49.93;99454.37;681462;1261;139315;-78
2023/07/26 13:21:17;;;;;;;12.20;1.50;;;;;;;24.63;51.30;99462.67;680727;1262;138558;-78
2023/07/26 13:36:22;;;;;;;4.90;1.20;;;;;;;24.35;50.99;99483.67;679902;1263;141479;-77
2023/07/26 13:51:26;;;;;;;2.30;1.20;;;;;;;23.77;51.45;99505.56;680104;1269;140180;-79
2023/07/26 14:06:30;;;;;;;130.40;53.90;;;;;;;23.16;53.23;99513.15;677460;1262;138546;-79
2023/07/26 14:21:34;;;;;;;6.10;2.60;;;;;;;23.05;54.50;99526.70;677357;1263;139246;-79
2023/07/26 14:36:38;;;;;;;10.20;2.50;;;;;;;23.09;57.14;99540.73;682090;1259;138459;-79
2023/07/26 14:51:41;;;;;;;3.40;1.20;;;;;;;23.06;58.01;99557.69;676890;1270;138931;-79
2023/07/26 15:06:45;;;;;;;2.90;1.40;;;;;;;23.14;57.46;99571.84;679388;1262;139726;-79
2023/07/26 15:21:49;;;;;;;3.10;1.20;;;;;;;22.87;57.25;99587.70;676167;1263;138661;-78
2023/07/26 15:36:52;;;;;;;6.40;1.40;;;;;;;22.93;56.44;99595.34;677696;1263;138622;-79
2023/07/26 15:51:56;;;;;;;3.70;1.50;;;;;;;22.94;56.14;99597.23;680320;1264;138426;-79
2023/07/26 16:06:59;;;;;;;3.80;2.10;;;;;;;22.69;56.77;99602.05;680993;1270;138974;-77
2023/07/26 16:22:05;;;;;;;4.30;2.00;;;;;;;22.36;57.70;99608.33;681070;1264;138746;-77
2023/07/26 16:37:09;;;;;;;2.80;1.50;;;;;;;22.22;57.46;99609.17;679787;1260;139148;-77
2023/07/26 16:52:15;;;;;;;3.90;1.60;;;;;;;21.90;58.73;99610.77;680969;1261;139111;-77
2023/07/26 17:07:19;;;;;;;3.10;1.50;;;;;;;21.80;60.15;99612.52;679733;1263;139025;-77
2023/07/26 17:22:22;;;;;;;6.00;3.00;;;;;;;21.57;60.30;99607.23;679243;1274;138544;-77
2023/07/26 17:37:28;;;;;;;6.60;2.70;;;;;;;21.40;60.90;99608.62;680137;1257;138373;-77
2023/07/26 17:52:31;;;;;;;9.70;4.10;;;;;;;21.36;61.20;99612.98;681504;1257;138540;-78
2023/07/26 18:07:35;;;;;;;24.20;13.10;;;;;;;21.25;61.66;99620.13;681577;1257;139333;-77
2023/07/26 18:22:38;;;;;;;8.30;2.80;;;;;;;20.99;62.84;99633.86;681159;1261;139607;-77
2023/07/26 18:37:43;;;;;;;6.60;3.30;;;;;;;20.79;64.03;99644.80;680658;1262;138555;-77
2023/07/26 18:52:47;;;;;;;9.40;4.80;;;;;;;20.13;66.19;99668.43;682241;1259;139725;-77
2023/07/26 19:07:51;;;;;;;16.90;7.70;;;;;;;19.44;69.18;99681.23;681114;1262;138538;-79
2023/07/26 19:22:55;;;;;;;10.60;6.10;;;;;;;19.25;69.46;99679.67;681149;1260;139877;-78
2023/07/26 19:37:59;;;;;;;5.80;3.20;;;;;;;19.11;70.29;99693.51;680873;1260;139478;-78
2023/07/26 19:53:03;;;;;;;17.10;6.30;;;;;;;19.09;70.95;99710.55;679886;1259;141330;-77
2023/07/26 20:08:06;;;;;;;9.30;5.20;;;;;;;18.91;70.63;99707.21;680746;1264;140699;-78
2023/07/26 20:23:10;;;;;;;6.70;3.60;;;;;;;18.37;72.06;99708.36;679645;1268;141076;-78
2023/07/26 20:38:14;;;;;;;7.00;2.70;;;;;;;18.34;72.59;99713.81;681651;1262;140215;-76
2023/07/26 20:53:17;;;;;;;12.60;5.70;;;;;;;17.91;74.13;99723.98;681107;1259;139038;-76
2023/07/26 21:08:20;;;;;;;8.30;3.70;;;;;;;17.83;75.71;99730.87;680919;1261;140983;-78
2023/07/26 21:23:24;;;;;;;11.10;4.10;;;;;;;17.83;76.78;99738.55;681567;1262;139827;-78
2023/07/26 21:38:27;;;;;;;26.40;9.90;;;;;;;17.91;77.67;99746.37;680515;1260;140109;-81
2023/07/26 21:53:30;;;;;;;16.10;8.00;;;;;;;17.51;87.38;99755.02;681001;1263;139982;-80
2023/07/26 22:08:33;;;;;;;14.50;7.20;;;;;;;17.24;88.05;99758.70;681128;1260;140355;-80
2023/07/26 22:23:37;;;;;;;60.70;22.10;;;;;;;17.18;89.23;99756.59;681352;1260;139807;-81
2023/07/26 22:38:40;;;;;;;10.40;5.30;;;;;;;16.82;91.46;99752.32;680898;1262;139792;-80
2023/07/26 22:53:48;;;;;;;11.00;5.40;;;;;;;16.46;93.74;99755.45;681772;1260;140111;-80
2023/07/26 23:08:51;;;;;;;19.50;9.40;;;;;;;16.62;92.85;99765.39;680943;1257;140165;-80
2023/07/26 23:23:54;;;;;;;12.30;5.80;;;;;;;16.29;96.71;99774.83;682082;1260;141310;-80
2023/07/26 23:38:57;;;;;;;9.40;6.00;;;;;;;15.93;99.48;99776.95;679499;1260;140019;-79
2023/07/26 23:54:01;;;;;;;10.90;6.10;;;;;;;15.72;97.83;99767.71;682386;1262;140339;-78
